昆明 の空港の天気 - METARとTAF

昆明巫家餽国際空港 ( ZPPP / KMG ) - 中国 雲南省昆明市
飛行場実況気象(Metar)
観測時間08/17 19:00 CST (08/17 11:00 UTC)
風向・風速南東 4m/s
視程10km以上
天気現象
なし
気温25℃
湿度44%
気圧1015hPa
METARZPPP 171100Z 14004MPS 110V180 CAVOK 25/12 Q1015 NOSIG
過去の天気等 Google飛行場航空写真 Wunderground天気予報

過去48時間のMETAR

飛行場予報(TAF)
発表時間: 8/17 15:05 CST (8/17 07:05 UTC)
予報対象時間: 17日20時 CST ~ 18日20時 CST
風向・風速南南西 4m/s
視程10km以上
全天の4割程度の雲 雲底高度 790m
TAF ZPPP 170705Z 1712/1812 20004MPS 9999 SCT026 TX28/1808Z TN16/1723Z